createdAt,value
2023-04-12T00:02:19.975Z,20.48
2023-04-12T00:04:55.803Z,20.55
2023-04-12T00:07:25.072Z,19.88
2023-04-12T00:09:52.096Z,20.67
2023-04-12T00:12:19.806Z,20.27
2023-04-12T00:14:47.458Z,19.70
2023-04-12T00:17:14.702Z,20.90
2023-04-12T00:19:45.107Z,20.42
2023-04-12T00:22:12.417Z,21.55
2023-04-12T00:24:40.555Z,20.02
2023-04-12T00:27:08.120Z,20.38
2023-04-12T00:29:35.168Z,20.30
2023-04-12T00:32:03.875Z,20.85
2023-04-12T00:34:31.079Z,21.23
2023-04-12T00:36:58.155Z,20.63
2023-04-12T00:39:26.365Z,21.85
2023-04-12T00:41:53.412Z,20.60
2023-04-12T00:44:20.632Z,19.45
2023-04-12T00:46:47.815Z,20.80
2023-04-12T00:49:15.856Z,20.08
2023-04-12T00:51:43.141Z,20.88
2023-04-12T00:54:10.185Z,21.55
2023-04-12T00:56:38.466Z,20.10
2023-04-12T00:59:05.608Z,20.08
2023-04-12T01:01:32.653Z,19.88
2023-04-12T01:04:05.182Z,19.98
2023-04-12T01:06:46.695Z,20.75
2023-04-12T01:09:46.746Z,19.08
2023-04-12T01:12:36.304Z,20.27
2023-04-12T01:15:16.726Z,20.05
2023-04-12T01:17:58.381Z,20.15
2023-04-12T01:20:31.468Z,20.17
2023-04-12T01:23:18.074Z,19.42
2023-04-12T01:26:21.976Z,20.15
2023-04-12T01:28:53.408Z,20.20
2023-04-12T01:31:21.879Z,20.73
2023-04-12T01:33:51.468Z,20.52
2023-04-12T01:36:46.278Z,19.92
2023-04-12T01:39:13.320Z,19.20
2023-04-12T01:41:45.730Z,19.65
2023-04-12T01:44:16.745Z,20.25
2023-04-12T01:46:46.991Z,19.67
2023-04-12T01:49:16.099Z,20.08
2023-04-12T01:51:55.704Z,20.85
2023-04-12T01:54:29.534Z,21.10
2023-04-12T01:57:03.422Z,20.48
2023-04-12T01:59:42.442Z,20.40
2023-04-12T02:02:10.679Z,20.73
2023-04-12T02:04:38.786Z,21.02
2023-04-12T02:07:05.955Z,21.67
2023-04-12T02:09:38.480Z,20.92
2023-04-12T02:12:06.733Z,21.60
2023-04-12T02:14:34.049Z,20.50
2023-04-12T02:17:04.676Z,19.98
2023-04-12T02:19:32.794Z,20.27
2023-04-12T02:21:59.977Z,20.55
2023-04-12T02:24:27.495Z,20.02
2023-04-12T02:26:55.195Z,20.90
2023-04-12T02:29:22.330Z,21.05
2023-04-12T02:31:49.357Z,20.75
2023-04-12T02:34:18.246Z,20.95
2023-04-12T02:36:49.727Z,20.05
2023-04-12T02:39:22.340Z,21.48
2023-04-12T02:41:49.488Z,20.90
2023-04-12T02:44:16.509Z,21.65
2023-04-12T02:46:43.579Z,21.80
2023-04-12T02:49:10.548Z,21.23
2023-04-12T02:51:38.539Z,20.33
2023-04-12T02:54:06.096Z,21.23
2023-04-12T02:56:36.347Z,20.67
2023-04-12T02:59:03.373Z,21.27
2023-04-12T03:01:31.137Z,21.67
2023-04-12T03:03:58.541Z,20.98
2023-04-12T03:06:25.795Z,22.05
2023-04-12T03:08:52.766Z,21.17
2023-04-12T03:11:19.714Z,21.33
2023-04-12T03:13:46.697Z,20.98
2023-04-12T03:16:25.375Z,20.52
2023-04-12T03:18:52.359Z,21.38
2023-04-12T03:21:19.338Z,20.83
2023-04-12T03:23:46.364Z,21.42
2023-04-12T03:26:13.741Z,22.00
2023-04-12T03:28:41.648Z,21.13
2023-04-12T03:31:08.928Z,21.17
2023-04-12T03:33:36.106Z,21.83
2023-04-12T03:36:03.316Z,22.15
2023-04-12T03:38:30.466Z,21.35
2023-04-12T03:40:57.627Z,22.38
2023-04-12T03:43:24.570Z,22.75
2023-04-12T03:45:51.647Z,22.20
2023-04-12T03:48:18.653Z,22.17
2023-04-12T03:50:45.663Z,23.27
2023-04-12T03:53:13.277Z,22.90
2023-04-12T03:55:40.678Z,24.40
2023-04-12T03:58:07.705Z,25.63
2023-04-12T04:00:34.780Z,24.73
2023-04-12T04:03:03.528Z,28.02
2023-04-12T04:05:31.441Z,30.23
2023-04-12T04:08:02.782Z,27.85
2023-04-12T04:10:30.125Z,28.80
2023-04-12T04:12:57.295Z,27.67
2023-04-12T04:15:26.290Z,29.30
2023-04-12T04:17:53.770Z,29.73
2023-04-12T04:20:20.926Z,29.55
2023-04-12T04:22:48.328Z,28.10
2023-04-12T04:25:16.059Z,29.13
2023-04-12T04:27:44.978Z,29.48
2023-04-12T04:30:16.541Z,29.08
2023-04-12T04:32:43.867Z,28.42
2023-04-12T04:35:11.221Z,29.85
2023-04-12T04:37:38.353Z,29.13
2023-04-12T04:40:09.677Z,28.83
2023-04-12T04:42:38.460Z,27.88
2023-04-12T04:45:13.166Z,29.33
2023-04-12T04:47:40.605Z,28.40
2023-04-12T04:50:08.570Z,28.40
2023-04-12T04:52:37.776Z,28.70
2023-04-12T04:55:06.990Z,27.08
2023-04-12T04:57:35.069Z,27.42
2023-04-12T05:00:02.534Z,28.35
2023-04-12T05:02:30.218Z,28.80
2023-04-12T05:04:57.404Z,28.40
2023-04-12T05:07:25.943Z,28.15
2023-04-12T05:09:52.974Z,28.30
2023-04-12T05:12:19.967Z,27.10
2023-04-12T05:14:49.842Z,26.00
2023-04-12T05:17:18.805Z,26.77
2023-04-12T05:19:45.836Z,26.95
2023-04-12T05:22:14.149Z,25.98
2023-04-12T05:24:41.205Z,24.85
2023-04-12T05:27:08.822Z,25.85
2023-04-12T05:29:35.773Z,25.05
2023-04-12T05:32:03.048Z,24.92
2023-04-12T05:34:30.659Z,22.88
2023-04-12T05:36:59.666Z,21.92
2023-04-12T05:39:27.623Z,21.38
2023-04-12T05:41:54.660Z,20.25
2023-04-12T05:44:21.865Z,19.67
2023-04-12T05:46:48.976Z,21.17
2023-04-12T05:49:16.406Z,20.70
2023-04-12T05:51:43.370Z,21.10
2023-04-12T05:54:10.771Z,20.48
2023-04-12T05:56:38.039Z,16.38
2023-04-12T05:59:05.371Z,17.45
2023-04-12T06:01:33.469Z,14.95
2023-04-12T06:04:06.039Z,14.00
2023-04-12T06:06:33.830Z,13.77
2023-04-12T06:09:01.168Z,13.60
2023-04-12T06:11:28.431Z,12.10
2023-04-12T06:13:55.721Z,29.55
2023-04-12T06:16:22.973Z,13.60
2023-04-12T06:18:49.965Z,10.13
2023-04-12T06:21:17.254Z,9.95
2023-04-12T06:23:44.393Z,11.27
2023-04-12T06:26:11.710Z,9.35
2023-04-12T06:28:38.888Z,10.52
2023-04-12T06:31:07.048Z,10.30
2023-04-12T06:33:34.176Z,10.32
2023-04-12T06:36:01.337Z,10.93
2023-04-12T06:38:28.415Z,11.02
2023-04-12T06:40:55.635Z,8.98
2023-04-12T06:43:22.903Z,10.10
2023-04-12T06:45:50.426Z,10.38
2023-04-12T06:48:17.463Z,10.80
2023-04-12T06:50:45.475Z,9.45
2023-04-12T06:53:13.760Z,10.27
2023-04-12T06:55:42.113Z,10.02
2023-04-12T06:58:09.196Z,10.18
2023-04-12T07:00:36.224Z,10.10
2023-04-12T07:03:03.518Z,9.80
2023-04-12T07:05:30.761Z,9.35
2023-04-12T07:07:57.791Z,10.35
2023-04-12T07:10:24.772Z,9.57
2023-04-12T07:12:52.080Z,9.70
2023-04-12T07:15:19.163Z,9.73
2023-04-12T07:17:46.229Z,10.07
2023-04-12T07:20:13.350Z,10.70
2023-04-12T07:22:40.511Z,11.10
2023-04-12T07:25:11.048Z,10.45
2023-04-12T07:27:39.159Z,11.32
2023-04-12T07:30:06.739Z,11.07
2023-04-12T07:32:33.811Z,10.45
2023-04-12T07:35:01.004Z,11.02
2023-04-12T07:37:28.050Z,10.68
2023-04-12T07:39:55.082Z,9.63
2023-04-12T07:42:22.130Z,9.90
2023-04-12T07:44:49.236Z,9.32
2023-04-12T07:47:16.496Z,9.98
2023-04-12T07:49:43.535Z,8.60
2023-04-12T07:52:10.640Z,9.55
2023-04-12T07:54:38.102Z,9.85
2023-04-12T07:57:05.086Z,9.73
2023-04-12T07:59:32.277Z,8.80
2023-04-12T08:01:59.570Z,9.40
2023-04-12T08:04:28.429Z,9.18
2023-04-12T08:06:56.191Z,11.13
2023-04-12T08:09:23.712Z,10.80
2023-04-12T08:11:51.023Z,11.40
2023-04-12T08:14:18.040Z,10.57
2023-04-12T08:16:45.174Z,9.55
2023-04-12T08:19:12.220Z,9.38
2023-04-12T08:21:39.391Z,8.25
2023-04-12T08:24:06.888Z,8.95
2023-04-12T08:26:33.975Z,8.50
2023-04-12T08:29:01.052Z,9.38
2023-04-12T08:31:28.965Z,8.35
2023-04-12T08:33:56.804Z,7.72
2023-04-12T08:36:24.123Z,7.40
2023-04-12T08:38:53.144Z,7.63
2023-04-12T08:41:20.454Z,6.72
2023-04-12T08:43:47.892Z,5.95
2023-04-12T08:46:16.274Z,5.82
2023-04-12T08:48:48.093Z,5.05
2023-04-12T08:51:17.410Z,5.63
2023-04-12T08:53:44.812Z,6.28
2023-04-12T08:56:13.680Z,5.35
2023-04-12T08:58:42.324Z,5.88
2023-04-12T09:01:15.845Z,6.13
2023-04-12T09:03:44.260Z,5.70
2023-04-12T09:06:14.530Z,5.72
2023-04-12T09:08:55.677Z,6.30
2023-04-12T09:11:27.781Z,5.53
2023-04-12T09:13:56.403Z,6.00
2023-04-12T09:16:40.664Z,5.80
2023-04-12T09:19:08.931Z,5.57
2023-04-12T09:21:37.214Z,6.03
2023-04-12T09:24:12.332Z,6.38
2023-04-12T09:26:40.645Z,6.22
2023-04-12T09:29:25.218Z,6.43
2023-04-12T09:31:56.589Z,6.10
2023-04-12T09:34:25.216Z,5.80
2023-04-12T09:36:53.783Z,6.60
2023-04-12T09:39:20.994Z,6.25
2023-04-12T09:41:48.157Z,6.07
2023-04-12T09:44:30.819Z,6.25
2023-04-12T09:47:00.973Z,6.40
2023-04-12T09:49:39.223Z,5.95
2023-04-12T09:52:07.735Z,6.30
2023-04-12T09:54:39.560Z,6.25
2023-04-12T09:57:10.670Z,5.75
2023-04-12T09:59:41.127Z,5.70
2023-04-12T10:02:20.310Z,5.70
2023-04-12T10:04:49.265Z,5.70
2023-04-12T10:07:17.600Z,5.63
2023-04-12T10:09:44.956Z,6.78
2023-04-12T10:12:11.963Z,5.88
2023-04-12T10:14:40.061Z,5.88
2023-04-12T10:17:09.415Z,6.68
2023-04-12T10:19:37.668Z,6.00
2023-04-12T10:22:04.765Z,6.15
2023-04-12T10:24:32.421Z,5.82
2023-04-12T10:27:03.204Z,5.88
2023-04-12T10:29:32.070Z,6.25
2023-04-12T10:32:20.708Z,5.88
2023-04-12T10:34:56.299Z,6.30
2023-04-12T10:37:43.417Z,6.15
2023-04-12T10:40:19.309Z,5.80
2023-04-12T10:42:46.418Z,5.75
2023-04-12T10:45:31.844Z,6.00
2023-04-12T10:48:00.666Z,6.20
2023-04-12T10:50:30.209Z,5.80
2023-04-12T10:53:18.395Z,5.95
2023-04-12T10:55:46.134Z,6.03
2023-04-12T10:58:48.306Z,6.05
2023-04-12T11:01:19.011Z,6.43
2023-04-12T11:04:05.992Z,6.07
2023-04-12T11:06:42.458Z,5.93
2023-04-12T11:09:44.620Z,6.30
2023-04-12T11:12:15.827Z,5.70
2023-04-12T11:14:47.144Z,6.25
2023-04-12T11:17:17.171Z,6.22
2023-04-12T11:19:45.387Z,6.07
2023-04-12T11:22:17.296Z,6.15
2023-04-12T11:24:46.781Z,5.68
2023-04-12T11:27:16.440Z,5.25
2023-04-12T11:29:44.765Z,6.00
2023-04-12T11:32:14.276Z,5.53
2023-04-12T11:34:43.667Z,5.45
2023-04-12T11:37:11.234Z,5.25
2023-04-12T11:39:45.968Z,5.43
2023-04-12T11:42:21.413Z,5.40
2023-04-12T11:44:57.321Z,5.80
2023-04-12T11:47:26.972Z,5.72
2023-04-12T11:49:58.726Z,6.10
2023-04-12T11:52:33.793Z,5.73
2023-04-12T11:55:07.008Z,6.13
2023-04-12T11:57:35.427Z,5.43
2023-04-12T12:00:06.439Z,5.45
2023-04-12T12:02:41.145Z,5.60
2023-04-12T12:05:13.809Z,5.20
2023-04-12T12:07:41.183Z,5.47
2023-04-12T12:10:09.416Z,5.80
2023-04-12T12:12:36.416Z,5.38
2023-04-12T12:15:03.687Z,5.78
2023-04-12T12:17:30.986Z,5.22
2023-04-12T12:19:59.509Z,5.63
2023-04-12T12:22:26.638Z,5.55
2023-04-12T12:24:58.346Z,5.88
2023-04-12T12:27:37.889Z,5.67
2023-04-12T12:30:07.979Z,5.43
2023-04-12T12:32:37.318Z,5.30
2023-04-12T12:35:12.868Z,5.32
2023-04-12T12:37:52.696Z,5.00
2023-04-12T12:40:28.239Z,5.75
2023-04-12T12:42:56.370Z,5.68
2023-04-12T12:45:25.852Z,5.07
2023-04-12T12:48:04.897Z,5.43
2023-04-12T12:50:34.585Z,4.95
2023-04-12T12:53:02.898Z,4.78
2023-04-12T12:55:31.647Z,5.05
2023-04-12T12:58:06.718Z,4.85
2023-04-12T13:00:36.676Z,5.25
2023-04-12T13:03:04.257Z,5.13
2023-04-12T13:05:31.709Z,5.22
2023-04-12T13:07:58.816Z,5.43
2023-04-12T13:10:27.267Z,5.57
2023-04-12T13:12:54.317Z,5.43
2023-04-12T13:15:23.550Z,5.60
2023-04-12T13:17:53.166Z,5.00
2023-04-12T13:20:21.167Z,5.47
2023-04-12T13:22:48.199Z,5.50
2023-04-12T13:25:15.245Z,5.13
2023-04-12T13:27:42.595Z,5.13
2023-04-12T13:30:09.921Z,5.00
2023-04-12T13:32:37.310Z,5.07
2023-04-12T13:35:05.069Z,5.18
2023-04-12T13:37:32.199Z,5.10
2023-04-12T13:39:59.218Z,4.88
2023-04-12T13:42:26.304Z,4.70
2023-04-12T13:44:53.291Z,4.93
2023-04-12T13:47:20.387Z,4.78
2023-04-12T13:49:47.449Z,5.13
2023-04-12T13:52:14.543Z,5.00
2023-04-12T13:54:43.430Z,4.68
2023-04-12T13:57:10.691Z,4.90
2023-04-12T13:59:37.840Z,4.72
2023-04-12T14:02:04.972Z,5.05
2023-04-12T14:04:32.329Z,5.00
2023-04-12T14:06:59.921Z,4.93
2023-04-12T14:09:28.740Z,5.38
2023-04-12T14:11:57.895Z,5.50
2023-04-12T14:14:27.463Z,5.20
2023-04-12T14:16:59.215Z,5.72
2023-04-12T14:19:26.602Z,5.85
2023-04-12T14:21:54.086Z,6.07
2023-04-12T14:24:21.737Z,5.63
2023-04-12T14:26:50.367Z,6.35
2023-04-12T14:29:17.601Z,6.25
2023-04-12T14:31:44.875Z,6.20
2023-04-12T14:34:13.385Z,5.88
2023-04-12T14:36:40.953Z,6.18
2023-04-12T14:39:11.226Z,5.78
2023-04-12T14:41:40.823Z,6.10
2023-04-12T14:44:07.812Z,6.50
2023-04-12T14:46:34.942Z,6.18
2023-04-12T14:49:02.222Z,6.60
2023-04-12T14:51:29.820Z,6.80
2023-04-12T14:53:57.388Z,6.70
2023-04-12T14:56:28.804Z,6.72
2023-04-12T14:58:57.422Z,6.78
2023-04-12T15:01:25.451Z,6.82
2023-04-12T15:03:53.287Z,7.43
2023-04-12T15:06:23.321Z,6.85
2023-04-12T15:08:57.497Z,6.50
2023-04-12T15:11:27.432Z,6.75
2023-04-12T15:13:55.587Z,7.28
2023-04-12T15:16:23.393Z,7.13
2023-04-12T15:18:51.711Z,7.18
2023-04-12T15:21:19.210Z,7.00
2023-04-12T15:23:47.432Z,7.75
2023-04-12T15:26:15.026Z,6.95
2023-04-12T15:28:42.638Z,6.90
2023-04-12T15:31:12.125Z,6.90
2023-04-12T15:33:42.041Z,6.93
2023-04-12T15:36:09.370Z,6.88
2023-04-12T15:38:42.574Z,6.65
2023-04-12T15:41:09.692Z,6.88
2023-04-12T15:43:36.918Z,7.15
2023-04-12T15:46:04.471Z,7.18
2023-04-12T15:48:31.728Z,6.78
2023-04-12T15:50:59.234Z,6.50
2023-04-12T15:53:27.572Z,6.78
2023-04-12T15:55:58.026Z,7.05
2023-04-12T15:58:27.020Z,7.00
2023-04-12T16:00:54.535Z,7.32
2023-04-12T16:03:26.776Z,7.30
2023-04-12T16:05:54.408Z,7.27
2023-04-12T16:08:22.556Z,7.38
2023-04-12T16:10:50.898Z,8.00
2023-04-12T16:13:18.739Z,7.32
2023-04-12T16:15:48.778Z,6.95
2023-04-12T16:18:17.311Z,6.72
2023-04-12T16:20:45.566Z,7.57
2023-04-12T16:23:13.550Z,7.90
2023-04-12T16:25:40.904Z,7.53
2023-04-12T16:28:08.260Z,8.27
2023-04-12T16:30:36.154Z,7.90
2023-04-12T16:33:03.418Z,7.88
2023-04-12T16:35:30.490Z,7.25
2023-04-12T16:37:57.691Z,7.90
2023-04-12T16:40:24.790Z,7.88
2023-04-12T16:42:52.154Z,8.13
2023-04-12T16:45:19.875Z,8.30
2023-04-12T16:47:47.724Z,8.45
2023-04-12T16:50:15.582Z,8.18
2023-04-12T16:52:42.994Z,8.40
2023-04-12T16:55:13.565Z,8.57
2023-04-12T16:57:42.332Z,7.80
2023-04-12T17:00:19.525Z,8.35
2023-04-12T17:02:51.330Z,8.30
2023-04-12T17:05:20.001Z,8.80
2023-04-12T17:07:52.132Z,7.47
2023-04-12T17:10:21.382Z,8.55
2023-04-12T17:12:50.611Z,8.90
2023-04-12T17:15:20.984Z,9.43
2023-04-12T17:17:51.036Z,9.93
2023-04-12T17:20:23.263Z,9.13
2023-04-12T17:22:51.141Z,10.32
2023-04-12T17:25:21.485Z,9.35
2023-04-12T17:27:53.915Z,9.25
2023-04-12T17:30:21.170Z,10.48
2023-04-12T17:32:48.521Z,11.82
2023-04-12T17:35:17.473Z,9.27
2023-04-12T17:37:45.064Z,9.85
2023-04-12T17:40:13.078Z,11.00
2023-04-12T17:42:42.201Z,10.27
2023-04-12T17:45:12.610Z,10.27
2023-04-12T17:47:59.785Z,9.70
2023-04-12T17:50:26.954Z,10.82
2023-04-12T17:53:13.104Z,11.50
2023-04-12T17:55:40.997Z,13.75
2023-04-12T17:58:08.435Z,14.18
2023-04-12T18:00:35.537Z,12.75
2023-04-12T18:03:02.637Z,12.15
2023-04-12T18:05:29.818Z,12.13
2023-04-12T18:07:57.211Z,13.00
2023-04-12T18:10:26.488Z,13.65
2023-04-12T18:12:54.086Z,15.00
2023-04-12T18:15:21.780Z,12.98
2023-04-12T18:17:48.972Z,12.13
2023-04-12T18:20:16.590Z,12.73
2023-04-12T18:23:02.657Z,12.68
2023-04-12T18:25:30.310Z,13.82
2023-04-12T18:27:57.684Z,13.63
2023-04-12T18:30:24.724Z,13.07
2023-04-12T18:32:51.853Z,13.18
2023-04-12T18:35:19.040Z,14.18
2023-04-12T18:37:47.047Z,13.98
2023-04-12T18:40:14.181Z,14.93
2023-04-12T18:42:41.189Z,14.10
2023-04-12T18:45:09.636Z,14.75
2023-04-12T18:47:39.077Z,14.02
2023-04-12T18:50:07.282Z,16.08
2023-04-12T18:52:55.856Z,14.70
2023-04-12T18:55:23.017Z,14.98
2023-04-12T18:57:50.253Z,15.55
2023-04-12T19:00:18.582Z,14.82
2023-04-12T19:02:45.629Z,15.48
2023-04-12T19:05:14.852Z,13.75
2023-04-12T19:07:42.057Z,14.38
2023-04-12T19:10:28.142Z,14.57
2023-04-12T19:12:55.373Z,13.77
2023-04-12T19:15:22.755Z,14.63
2023-04-12T19:17:50.844Z,13.50
2023-04-12T19:20:18.348Z,13.18
2023-04-12T19:22:45.405Z,13.50
2023-04-12T19:25:12.560Z,13.52
2023-04-12T19:27:39.764Z,14.50
2023-04-12T19:30:08.794Z,12.27
2023-04-12T19:32:35.832Z,14.95
2023-04-12T19:35:21.312Z,11.68
2023-04-12T19:37:50.187Z,12.27
2023-04-12T19:40:17.803Z,11.52
2023-04-12T19:42:44.837Z,12.85
2023-04-12T19:45:12.189Z,11.85
2023-04-12T19:47:44.825Z,14.02
2023-04-12T19:50:15.703Z,12.52
2023-04-12T19:52:48.869Z,11.68
2023-04-12T19:55:16.476Z,11.80
2023-04-12T19:57:43.496Z,13.80
2023-04-12T20:00:23.022Z,13.35
2023-04-12T20:02:51.399Z,11.57
2023-04-12T20:05:20.060Z,11.77
2023-04-12T20:07:47.147Z,13.48
2023-04-12T20:10:15.607Z,15.07
2023-04-12T20:12:42.736Z,12.57
2023-04-12T20:15:14.248Z,14.02
2023-04-12T20:17:43.082Z,16.20
2023-04-12T20:20:11.167Z,15.43
2023-04-12T20:22:39.206Z,13.80
2023-04-12T20:25:06.432Z,13.57
2023-04-12T20:27:33.929Z,14.90
2023-04-12T20:30:01.727Z,13.73
2023-04-12T20:32:29.611Z,14.52
2023-04-12T20:34:56.869Z,13.02
2023-04-12T20:37:23.920Z,13.43
2023-04-12T20:39:51.685Z,13.43
2023-04-12T20:42:21.416Z,15.38
2023-04-12T20:44:48.971Z,13.90
2023-04-12T20:47:16.264Z,13.88
2023-04-12T20:49:43.331Z,13.88
2023-04-12T20:52:11.046Z,13.40
2023-04-12T20:54:38.635Z,13.20
2023-04-12T20:57:05.654Z,13.43
2023-04-12T20:59:33.985Z,13.73
2023-04-12T21:02:01.304Z,12.60
2023-04-12T21:04:36.608Z,12.57
2023-04-12T21:07:05.197Z,15.07
2023-04-12T21:09:32.515Z,11.85
2023-04-12T21:12:02.761Z,12.55
2023-04-12T21:14:29.931Z,11.95
2023-04-12T21:17:00.756Z,11.88
2023-04-12T21:19:27.821Z,12.43
2023-04-12T21:21:54.787Z,12.70
2023-04-12T21:24:21.826Z,10.95
2023-04-12T21:26:56.532Z,11.77
2023-04-12T21:29:23.933Z,15.65
2023-04-12T21:31:51.072Z,12.63
2023-04-12T21:34:19.817Z,12.93
2023-04-12T21:36:47.074Z,13.10
2023-04-12T21:39:14.058Z,13.20
2023-04-12T21:41:41.041Z,13.35
2023-04-12T21:44:08.357Z,12.07
2023-04-12T21:46:36.072Z,11.70
2023-04-12T21:49:05.060Z,11.38
2023-04-12T21:51:32.901Z,11.95
2023-04-12T21:53:59.868Z,11.45
2023-04-12T21:56:26.985Z,11.38
2023-04-12T21:58:53.968Z,11.98
2023-04-12T22:01:21.031Z,11.73
2023-04-12T22:03:48.212Z,12.40
2023-04-12T22:06:15.412Z,11.60
2023-04-12T22:08:44.263Z,13.07
2023-04-12T22:11:12.018Z,18.38
2023-04-12T22:13:41.835Z,19.60
2023-04-12T22:16:13.689Z,14.13
2023-04-12T22:18:41.323Z,13.57
2023-04-12T22:21:08.494Z,11.95
2023-04-12T22:23:41.042Z,11.52
2023-04-12T22:26:27.626Z,12.95
2023-04-12T22:29:31.790Z,11.80
2023-04-12T22:31:58.994Z,12.57
2023-04-12T22:34:27.189Z,12.95
2023-04-12T22:36:59.406Z,15.68
2023-04-12T22:39:27.012Z,12.83
2023-04-12T22:42:13.136Z,11.93
2023-04-12T22:44:40.140Z,15.85
2023-04-12T22:47:07.578Z,18.92
2023-04-12T22:49:44.966Z,12.93
2023-04-12T22:52:12.248Z,13.00
2023-04-12T22:54:40.352Z,13.45
2023-04-12T22:57:07.515Z,12.73
2023-04-12T22:59:35.011Z,12.98
2023-04-12T23:02:02.641Z,13.20
2023-04-12T23:04:51.506Z,12.90
2023-04-12T23:07:18.641Z,12.98
2023-04-12T23:10:04.682Z,12.38
2023-04-12T23:12:32.029Z,12.30
2023-04-12T23:15:17.865Z,13.95
2023-04-12T23:17:44.930Z,13.57
2023-04-12T23:20:15.039Z,13.50
2023-04-12T23:22:57.728Z,14.13
2023-04-12T23:25:45.872Z,13.73
2023-04-12T23:28:15.124Z,15.50
2023-04-12T23:30:44.051Z,13.57
2023-04-12T23:33:12.434Z,13.50
2023-04-12T23:35:41.281Z,14.77
2023-04-12T23:38:32.767Z,15.27
2023-04-12T23:41:04.245Z,14.75
2023-04-12T23:43:32.736Z,15.63
2023-04-12T23:46:00.007Z,14.73
2023-04-12T23:48:27.323Z,14.02
2023-04-12T23:50:54.523Z,17.00
2023-04-12T23:53:22.044Z,15.90
2023-04-12T23:55:51.969Z,15.98
2023-04-12T23:58:19.634Z,14.88
